sensor_id;sensor_type;location;lat;lon;timestamp;pressure;altitude;pressure_sealevel;temperature;humidity
14383;BME280;7275;50.328;8.720;2023-04-27T00:01:48;99951.38;;;14.40;31.78
14383;BME280;7275;50.328;8.720;2023-04-27T00:04:16;99952.31;;;14.39;31.77
14383;BME280;7275;50.328;8.720;2023-04-27T00:06:44;99944.34;;;14.39;31.85
14383;BME280;7275;50.328;8.720;2023-04-27T00:09:12;99946.22;;;14.37;31.84
14383;BME280;7275;50.328;8.720;2023-04-27T00:11:41;99941.81;;;14.36;31.74
14383;BME280;7275;50.328;8.720;2023-04-27T00:14:08;99946.28;;;14.35;31.85
14383;BME280;7275;50.328;8.720;2023-04-27T00:16:36;99942.81;;;14.33;31.91
14383;BME280;7275;50.328;8.720;2023-04-27T00:19:03;99936.66;;;14.33;31.85
14383;BME280;7275;50.328;8.720;2023-04-27T00:21:31;99934.94;;;14.32;31.84
14383;BME280;7275;50.328;8.720;2023-04-27T00:23:58;99935.81;;;14.32;31.93
14383;BME280;7275;50.328;8.720;2023-04-27T00:26:26;99930.47;;;14.32;31.91
14383;BME280;7275;50.328;8.720;2023-04-27T00:28:55;99923.28;;;14.34;32.09
14383;BME280;7275;50.328;8.720;2023-04-27T00:31:22;99920.63;;;14.34;31.89
14383;BME280;7275;50.328;8.720;2023-04-27T00:33:50;99926.03;;;14.33;31.96
14383;BME280;7275;50.328;8.720;2023-04-27T00:36:17;99923.44;;;14.31;32.13
14383;BME280;7275;50.328;8.720;2023-04-27T00:38:44;99918.28;;;14.28;32.15
14383;BME280;7275;50.328;8.720;2023-04-27T00:41:12;99917.50;;;14.25;31.94
14383;BME280;7275;50.328;8.720;2023-04-27T00:43:41;99922.13;;;14.21;31.92
14383;BME280;7275;50.328;8.720;2023-04-27T00:46:12;99921.56;;;14.15;32.02
14383;BME280;7275;50.328;8.720;2023-04-27T00:48:40;99919.34;;;14.06;32.14
14383;BME280;7275;50.328;8.720;2023-04-27T00:51:08;99928.25;;;14.05;31.98
14383;BME280;7275;50.328;8.720;2023-04-27T00:53:35;99922.16;;;14.03;32.10
14383;BME280;7275;50.328;8.720;2023-04-27T00:56:04;99928.47;;;14.00;32.02
14383;BME280;7275;50.328;8.720;2023-04-27T00:58:31;99932.28;;;13.95;32.02
14383;BME280;7275;50.328;8.720;2023-04-27T01:00:59;99927.19;;;13.90;32.08
14383;BME280;7275;50.328;8.720;2023-04-27T01:03:28;99929.19;;;13.85;32.26
14383;BME280;7275;50.328;8.720;2023-04-27T01:05:56;99932.91;;;13.81;32.14
14383;BME280;7275;50.328;8.720;2023-04-27T01:08:27;99934.94;;;13.76;32.14
14383;BME280;7275;50.328;8.720;2023-04-27T01:10:54;99932.56;;;13.70;32.21
14383;BME280;7275;50.328;8.720;2023-04-27T01:13:22;99945.19;;;13.65;32.29
14383;BME280;7275;50.328;8.720;2023-04-27T01:15:49;99936.72;;;13.57;32.30
14383;BME280;7275;50.328;8.720;2023-04-27T01:18:17;99943.19;;;13.51;32.48
14383;BME280;7275;50.328;8.720;2023-04-27T01:20:46;99939.84;;;13.46;32.15
14383;BME280;7275;50.328;8.720;2023-04-27T01:23:15;99942.63;;;13.43;32.43
14383;BME280;7275;50.328;8.720;2023-04-27T01:25:43;99944.66;;;13.38;32.53
14383;BME280;7275;50.328;8.720;2023-04-27T01:28:11;99945.66;;;13.36;32.54
14383;BME280;7275;50.328;8.720;2023-04-27T01:30:38;99945.84;;;13.31;32.77
14383;BME280;7275;50.328;8.720;2023-04-27T01:33:06;99935.38;;;13.28;32.83
14383;BME280;7275;50.328;8.720;2023-04-27T01:35:33;99944.25;;;13.27;32.81
14383;BME280;7275;50.328;8.720;2023-04-27T01:38:01;99944.41;;;13.24;32.80
14383;BME280;7275;50.328;8.720;2023-04-27T01:40:30;99940.97;;;13.22;32.95
14383;BME280;7275;50.328;8.720;2023-04-27T01:42:57;99945.41;;;13.22;33.00
14383;BME280;7275;50.328;8.720;2023-04-27T01:45:25;99946.31;;;13.21;32.86
14383;BME280;7275;50.328;8.720;2023-04-27T01:47:52;99956.91;;;13.22;32.91
14383;BME280;7275;50.328;8.720;2023-04-27T01:50:20;99957.69;;;13.24;33.19
14383;BME280;7275;50.328;8.720;2023-04-27T01:52:47;99951.34;;;13.27;32.98
14383;BME280;7275;50.328;8.720;2023-04-27T01:55:15;99958.31;;;13.29;33.25
14383;BME280;7275;50.328;8.720;2023-04-27T01:57:44;99967.09;;;13.31;32.98
14383;BME280;7275;50.328;8.720;2023-04-27T02:00:12;99965.19;;;13.35;33.24
14383;BME280;7275;50.328;8.720;2023-04-27T02:02:40;99969.47;;;13.37;33.08
14383;BME280;7275;50.328;8.720;2023-04-27T02:05:08;99975.56;;;13.39;33.44
14383;BME280;7275;50.328;8.720;2023-04-27T02:07:36;99972.72;;;13.44;33.27
14383;BME280;7275;50.328;8.720;2023-04-27T02:10:04;99976.25;;;13.44;33.36
14383;BME280;7275;50.328;8.720;2023-04-27T02:12:32;99972.69;;;13.45;33.33
14383;BME280;7275;50.328;8.720;2023-04-27T02:15:01;99973.59;;;13.44;33.41
14383;BME280;7275;50.328;8.720;2023-04-27T02:17:28;99974.50;;;13.43;33.28
14383;BME280;7275;50.328;8.720;2023-04-27T02:19:57;99969.19;;;13.43;33.40
14383;BME280;7275;50.328;8.720;2023-04-27T02:22:24;99979.81;;;13.43;33.42
14383;BME280;7275;50.328;8.720;2023-04-27T02:24:52;99976.31;;;13.43;33.45
14383;BME280;7275;50.328;8.720;2023-04-27T02:27:20;99974.59;;;13.42;33.50
14383;BME280;7275;50.328;8.720;2023-04-27T02:29:48;99972.91;;;13.39;33.37
14383;BME280;7275;50.328;8.720;2023-04-27T02:32:17;99968.56;;;13.38;33.33
14383;BME280;7275;50.328;8.720;2023-04-27T02:34:44;99975.72;;;13.36;33.27
14383;BME280;7275;50.328;8.720;2023-04-27T02:37:12;99980.31;;;13.33;33.43
14383;BME280;7275;50.328;8.720;2023-04-27T02:39:39;99976.84;;;13.31;33.57
14383;BME280;7275;50.328;8.720;2023-04-27T02:42:07;99978.69;;;13.29;33.52
14383;BME280;7275;50.328;8.720;2023-04-27T02:44:34;99985.03;;;13.26;33.60
14383;BME280;7275;50.328;8.720;2023-04-27T02:47:02;99988.59;;;13.25;33.54
14383;BME280;7275;50.328;8.720;2023-04-27T02:49:31;99985.16;;;13.23;33.58
14383;BME280;7275;50.328;8.720;2023-04-27T02:51:58;99981.63;;;13.23;33.77
14383;BME280;7275;50.328;8.720;2023-04-27T02:54:26;99981.69;;;13.21;33.96
14383;BME280;7275;50.328;8.720;2023-04-27T02:56:53;99983.44;;;13.22;33.76
14383;BME280;7275;50.328;8.720;2023-04-27T02:59:21;99981.63;;;13.23;33.77
14383;BME280;7275;50.328;8.720;2023-04-27T03:01:49;99981.59;;;13.24;33.94
14383;BME280;7275;50.328;8.720;2023-04-27T03:04:16;99982.38;;;13.26;33.81
14383;BME280;7275;50.328;8.720;2023-04-27T03:06:45;99980.53;;;13.28;33.98
14383;BME280;7275;50.328;8.720;2023-04-27T03:09:13;99980.44;;;13.30;33.72
14383;BME280;7275;50.328;8.720;2023-04-27T03:11:41;99972.47;;;13.30;33.99
14383;BME280;7275;50.328;8.720;2023-04-27T03:14:09;99974.19;;;13.31;33.92
14383;BME280;7275;50.328;8.720;2023-04-27T03:16:37;99974.19;;;13.31;33.89
14383;BME280;7275;50.328;8.720;2023-04-27T03:19:05;99976.84;;;13.31;34.06
14383;BME280;7275;50.328;8.720;2023-04-27T03:21:33;99976.00;;;13.30;33.96
14383;BME280;7275;50.328;8.720;2023-04-27T03:24:03;99973.34;;;13.30;33.94
14383;BME280;7275;50.328;8.720;2023-04-27T03:26:30;99971.59;;;13.29;33.92
14383;BME280;7275;50.328;8.720;2023-04-27T03:28:58;99977.91;;;13.27;33.75
14383;BME280;7275;50.328;8.720;2023-04-27T03:31:26;99971.00;;;13.23;33.71
14383;BME280;7275;50.328;8.720;2023-04-27T03:33:53;99967.56;;;13.21;33.82
14383;BME280;7275;50.328;8.720;2023-04-27T03:36:21;99963.31;;;13.17;33.75
14383;BME280;7275;50.328;8.720;2023-04-27T03:38:48;99965.97;;;13.17;34.00
14383;BME280;7275;50.328;8.720;2023-04-27T03:41:17;99965.19;;;13.15;33.80
14383;BME280;7275;50.328;8.720;2023-04-27T03:43:44;99963.50;;;13.12;34.03
14383;BME280;7275;50.328;8.720;2023-04-27T03:46:12;99958.34;;;13.09;34.11
14383;BME280;7275;50.328;8.720;2023-04-27T03:48:40;99961.13;;;13.06;33.97
14383;BME280;7275;50.328;8.720;2023-04-27T03:51:09;99962.97;;;13.04;33.89
14383;BME280;7275;50.328;8.720;2023-04-27T03:53:36;99965.75;;;13.01;34.07
14383;BME280;7275;50.328;8.720;2023-04-27T03:56:04;99970.31;;;12.98;33.94
14383;BME280;7275;50.328;8.720;2023-04-27T03:58:33;99968.72;;;12.94;33.98
14383;BME280;7275;50.328;8.720;2023-04-27T04:01:00;99969.72;;;12.91;34.28
14383;BME280;7275;50.328;8.720;2023-04-27T04:03:28;99971.50;;;12.91;34.29
14383;BME280;7275;50.328;8.720;2023-04-27T04:05:56;99974.25;;;12.89;34.24
14383;BME280;7275;50.328;8.720;2023-04-27T04:08:23;99966.31;;;12.88;34.22
14383;BME280;7275;50.328;8.720;2023-04-27T04:10:51;99971.69;;;12.86;34.22
14383;BME280;7275;50.328;8.720;2023-04-27T04:13:18;99980.53;;;12.87;34.14
14383;BME280;7275;50.328;8.720;2023-04-27T04:15:49;99995.56;;;12.86;34.50
14383;BME280;7275;50.328;8.720;2023-04-27T04:18:17;99991.97;;;12.87;34.37
14383;BME280;7275;50.328;8.720;2023-04-27T04:20:44;99990.19;;;12.88;34.23
14383;BME280;7275;50.328;8.720;2023-04-27T04:23:11;100004.34;;;12.88;34.29
14383;BME280;7275;50.328;8.720;2023-04-27T04:25:39;99997.25;;;12.89;34.32
14383;BME280;7275;50.328;8.720;2023-04-27T04:28:06;99999.94;;;12.87;34.36
14383;BME280;7275;50.328;8.720;2023-04-27T04:30:34;99995.56;;;12.86;34.34
14383;BME280;7275;50.328;8.720;2023-04-27T04:33:03;100000.88;;;12.86;34.25
14383;BME280;7275;50.328;8.720;2023-04-27T04:35:30;99991.19;;;12.85;34.59
14383;BME280;7275;50.328;8.720;2023-04-27T04:37:59;99994.78;;;12.84;34.60
14383;BME280;7275;50.328;8.720;2023-04-27T04:40:27;99994.78;;;12.84;34.57
14383;BME280;7275;50.328;8.720;2023-04-27T04:42:54;99998.34;;;12.83;34.59
14383;BME280;7275;50.328;8.720;2023-04-27T04:45:22;100004.59;;;12.82;34.37
14383;BME280;7275;50.328;8.720;2023-04-27T04:47:49;99999.28;;;12.82;34.47
14383;BME280;7275;50.328;8.720;2023-04-27T04:50:18;99991.25;;;12.83;34.50
14383;BME280;7275;50.328;8.720;2023-04-27T04:52:45;99992.19;;;12.82;34.43
14383;BME280;7275;50.328;8.720;2023-04-27T04:55:13;100000.19;;;12.81;34.44
14383;BME280;7275;50.328;8.720;2023-04-27T04:57:42;99989.72;;;12.78;34.32
14383;BME280;7275;50.328;8.720;2023-04-27T05:00:11;99996.03;;;12.75;34.39
14383;BME280;7275;50.328;8.720;2023-04-27T05:02:39;99999.66;;;12.73;34.41
14383;BME280;7275;50.328;8.720;2023-04-27T05:05:08;100002.38;;;12.71;34.83
14383;BME280;7275;50.328;8.720;2023-04-27T05:07:36;100010.22;;;12.74;34.50
14383;BME280;7275;50.328;8.720;2023-04-27T05:10:04;100010.09;;;12.77;34.55
14383;BME280;7275;50.328;8.720;2023-04-27T05:12:32;100012.63;;;12.80;34.46
14383;BME280;7275;50.328;8.720;2023-04-27T05:15:00;100010.63;;;12.85;34.42
14383;BME280;7275;50.328;8.720;2023-04-27T05:17:27;100013.91;;;12.92;34.70
14383;BME280;7275;50.328;8.720;2023-04-27T05:19:55;100017.28;;;12.96;34.70
14383;BME280;7275;50.328;8.720;2023-04-27T05:22:23;100015.41;;;12.98;34.60
14383;BME280;7275;50.328;8.720;2023-04-27T05:24:52;100019.66;;;13.02;34.51
14383;BME280;7275;50.328;8.720;2023-04-27T05:27:19;100018.72;;;13.04;34.66
14383;BME280;7275;50.328;8.720;2023-04-27T05:29:47;100015.78;;;13.10;34.54
14383;BME280;7275;50.328;8.720;2023-04-27T05:32:14;100008.59;;;13.14;34.51
14383;BME280;7275;50.328;8.720;2023-04-27T05:34:42;100017.28;;;13.17;34.64
14383;BME280;7275;50.328;8.720;2023-04-27T05:37:12;100013.63;;;13.20;34.53
14383;BME280;7275;50.328;8.720;2023-04-27T05:39:40;100028.50;;;13.24;34.74
14383;BME280;7275;50.328;8.720;2023-04-27T05:42:08;100025.66;;;13.28;34.42
14383;BME280;7275;50.328;8.720;2023-04-27T05:44:36;100037.00;;;13.32;34.70
14383;BME280;7275;50.328;8.720;2023-04-27T05:47:04;100026.25;;;13.35;34.49
14383;BME280;7275;50.328;8.720;2023-04-27T05:49:31;100030.34;;;13.42;34.53
14383;BME280;7275;50.328;8.720;2023-04-27T05:51:59;100026.59;;;13.47;34.80
14383;BME280;7275;50.328;8.720;2023-04-27T05:54:26;100024.66;;;13.51;34.43
14383;BME280;7275;50.328;8.720;2023-04-27T05:56:54;100034.19;;;13.55;34.61
14383;BME280;7275;50.328;8.720;2023-04-27T05:59:23;100040.13;;;13.61;34.50
14383;BME280;7275;50.328;8.720;2023-04-27T06:01:50;100040.72;;;13.68;34.38
14383;BME280;7275;50.328;8.720;2023-04-27T06:04:18;100035.13;;;13.74;34.48
14383;BME280;7275;50.328;8.720;2023-04-27T06:06:45;100038.38;;;13.81;34.53
14383;BME280;7275;50.328;8.720;2023-04-27T06:09:13;100041.53;;;13.89;34.48
14383;BME280;7275;50.328;8.720;2023-04-27T06:11:41;100039.38;;;13.97;34.28
14383;BME280;7275;50.328;8.720;2023-04-27T06:14:08;100038.03;;;14.07;34.67
14383;BME280;7275;50.328;8.720;2023-04-27T06:16:37;100044.50;;;14.20;34.58
14383;BME280;7275;50.328;8.720;2023-04-27T06:19:05;100043.09;;;14.31;34.49
14383;BME280;7275;50.328;8.720;2023-04-27T06:21:33;100041.69;;;14.43;34.44
14383;BME280;7275;50.328;8.720;2023-04-27T06:24:01;100051.84;;;14.52;34.57
14383;BME280;7275;50.328;8.720;2023-04-27T06:26:29;100036.47;;;14.59;34.54
14383;BME280;7275;50.328;8.720;2023-04-27T06:28:56;100041.84;;;14.76;34.48
14383;BME280;7275;50.328;8.720;2023-04-27T06:31:24;100043.09;;;14.86;34.46
14383;BME280;7275;50.328;8.720;2023-04-27T06:33:53;100036.34;;;14.97;34.38
14383;BME280;7275;50.328;8.720;2023-04-27T06:36:21;100047.22;;;15.10;34.42
14383;BME280;7275;50.328;8.720;2023-04-27T06:38:48;100050.84;;;15.26;34.44
14383;BME280;7275;50.328;8.720;2023-04-27T06:41:21;100048.03;;;15.46;34.40
14383;BME280;7275;50.328;8.720;2023-04-27T06:43:48;100054.06;;;15.67;34.29
14383;BME280;7275;50.328;8.720;2023-04-27T06:46:16;100056.78;;;15.82;34.01
14383;BME280;7275;50.328;8.720;2023-04-27T06:48:44;100049.00;;;15.95;33.82
14383;BME280;7275;50.328;8.720;2023-04-27T06:51:13;100051.09;;;16.06;33.66
14383;BME280;7275;50.328;8.720;2023-04-27T06:53:41;100056.00;;;16.13;33.45
14383;BME280;7275;50.328;8.720;2023-04-27T06:56:10;100061.00;;;16.19;33.43
14383;BME280;7275;50.328;8.720;2023-04-27T06:58:38;100063.31;;;16.25;33.50
14383;BME280;7275;50.328;8.720;2023-04-27T07:01:05;100067.41;;;16.32;33.51
14383;BME280;7275;50.328;8.720;2023-04-27T07:03:33;100060.78;;;16.39;33.34
14383;BME280;7275;50.328;8.720;2023-04-27T07:06:02;100069.13;;;16.49;33.21
14383;BME280;7275;50.328;8.720;2023-04-27T07:08:31;100058.06;;;16.56;33.25
14383;BME280;7275;50.328;8.720;2023-04-27T07:10:59;100065.75;;;16.62;33.24
14383;BME280;7275;50.328;8.720;2023-04-27T07:13:26;100063.50;;;16.70;33.32
14383;BME280;7275;50.328;8.720;2023-04-27T07:15:54;100062.03;;;16.81;32.97
14383;BME280;7275;50.328;8.720;2023-04-27T07:18:23;100064.84;;;16.93;33.23
14383;BME280;7275;50.328;8.720;2023-04-27T07:20:53;100055.78;;;17.11;33.16
14383;BME280;7275;50.328;8.720;2023-04-27T07:23:21;100055.75;;;17.27;32.97
14383;BME280;7275;50.328;8.720;2023-04-27T07:25:50;100059.31;;;17.41;32.92
14383;BME280;7275;50.328;8.720;2023-04-27T07:28:17;100053.19;;;17.55;32.79
14383;BME280;7275;50.328;8.720;2023-04-27T07:30:45;100044.50;;;17.66;32.95
14383;BME280;7275;50.328;8.720;2023-04-27T07:33:13;100046.25;;;17.81;32.57
14383;BME280;7275;50.328;8.720;2023-04-27T07:35:40;100046.53;;;17.90;32.68
14383;BME280;7275;50.328;8.720;2023-04-27T07:38:08;100043.31;;;17.99;32.40
14383;BME280;7275;50.328;8.720;2023-04-27T07:40:37;100043.69;;;18.07;32.28
14383;BME280;7275;50.328;8.720;2023-04-27T07:43:06;100042.06;;;18.19;32.40
14383;BME280;7275;50.328;8.720;2023-04-27T07:45:34;100044.91;;;18.30;32.51
14383;BME280;7275;50.328;8.720;2023-04-27T07:48:03;100038.72;;;18.44;32.00
14383;BME280;7275;50.328;8.720;2023-04-27T07:50:31;100045.84;;;18.57;32.03
14383;BME280;7275;50.328;8.720;2023-04-27T07:52:59;100047.75;;;18.69;31.65
14383;BME280;7275;50.328;8.720;2023-04-27T07:55:26;100044.28;;;18.81;31.62
14383;BME280;7275;50.328;8.720;2023-04-27T07:57:55;100042.50;;;18.94;31.67
14383;BME280;7275;50.328;8.720;2023-04-27T08:00:25;100038.06;;;19.07;31.42
14383;BME280;7275;50.328;8.720;2023-04-27T08:02:53;100047.00;;;19.21;31.50
14383;BME280;7275;50.328;8.720;2023-04-27T08:05:21;100042.84;;;19.29;31.27
14383;BME280;7275;50.328;8.720;2023-04-27T08:07:50;100038.91;;;19.35;31.09
14383;BME280;7275;50.328;8.720;2023-04-27T08:10:19;100031.50;;;19.38;31.00
14383;BME280;7275;50.328;8.720;2023-04-27T08:12:47;100030.88;;;19.47;31.18
14383;BME280;7275;50.328;8.720;2023-04-27T08:15:15;100029.28;;;19.57;31.04
14383;BME280;7275;50.328;8.720;2023-04-27T08:17:44;100024.91;;;19.69;30.94
14383;BME280;7275;50.328;8.720;2023-04-27T08:20:12;100026.09;;;19.77;30.73
14383;BME280;7275;50.328;8.720;2023-04-27T08:22:40;100037.16;;;19.85;30.81
14383;BME280;7275;50.328;8.720;2023-04-27T08:25:08;100021.50;;;19.92;30.82
14383;BME280;7275;50.328;8.720;2023-04-27T08:27:36;100025.56;;;19.98;30.62
14383;BME280;7275;50.328;8.720;2023-04-27T08:30:05;100025.75;;;20.07;30.60
14383;BME280;7275;50.328;8.720;2023-04-27T08:32:33;100028.53;;;20.18;30.43
14383;BME280;7275;50.328;8.720;2023-04-27T08:35:03;100026.06;;;20.28;30.38
14383;BME280;7275;50.328;8.720;2023-04-27T08:37:30;100030.66;;;20.38;30.40
14383;BME280;7275;50.328;8.720;2023-04-27T08:39:58;100022.09;;;20.46;30.09
14383;BME280;7275;50.328;8.720;2023-04-27T08:42:26;100024.06;;;20.55;30.13
14383;BME280;7275;50.328;8.720;2023-04-27T08:44:55;100024.50;;;20.61;29.72
14383;BME280;7275;50.328;8.720;2023-04-27T08:47:23;100024.16;;;20.66;29.55
14383;BME280;7275;50.328;8.720;2023-04-27T08:50:06;100028.59;;;20.67;29.62
14383;BME280;7275;50.328;8.720;2023-04-27T08:52:36;100026.28;;;20.73;29.87
14383;BME280;7275;50.328;8.720;2023-04-27T08:55:04;100033.66;;;20.83;29.63
14383;BME280;7275;50.328;8.720;2023-04-27T08:57:32;100026.88;;;20.90;29.49
14383;BME280;7275;50.328;8.720;2023-04-27T09:00:00;100020.69;;;21.00;29.54
14383;BME280;7275;50.328;8.720;2023-04-27T09:02:33;100019.56;;;21.15;29.57
14383;BME280;7275;50.328;8.720;2023-04-27T09:05:01;100014.22;;;21.26;29.49
14383;BME280;7275;50.328;8.720;2023-04-27T09:07:30;100013.19;;;21.40;29.28
14383;BME280;7275;50.328;8.720;2023-04-27T09:10:01;100013.84;;;21.55;29.59
14383;BME280;7275;50.328;8.720;2023-04-27T09:12:29;100013.28;;;21.73;29.17
14383;BME280;7275;50.328;8.720;2023-04-27T09:14:58;100005.59;;;21.91;29.21
14383;BME280;7275;50.328;8.720;2023-04-27T09:17:26;100004.63;;;22.14;29.48
14383;BME280;7275;50.328;8.720;2023-04-27T09:20:03;100005.38;;;22.38;29.11
14383;BME280;7275;50.328;8.720;2023-04-27T09:22:42;100002.53;;;22.62;28.55
14383;BME280;7275;50.328;8.720;2023-04-27T09:25:21;100001.25;;;22.88;28.72
14383;BME280;7275;50.328;8.720;2023-04-27T09:27:49;100000.50;;;23.18;28.76
14383;BME280;7275;50.328;8.720;2023-04-27T09:30:17;99990.03;;;23.56;28.73
14383;BME280;7275;50.328;8.720;2023-04-27T09:32:50;99980.03;;;23.98;28.24
14383;BME280;7275;50.328;8.720;2023-04-27T09:35:22;99994.88;;;24.33;28.19
14383;BME280;7275;50.328;8.720;2023-04-27T09:37:52;99980.47;;;24.63;27.64
14383;BME280;7275;50.328;8.720;2023-04-27T09:40:23;99985.53;;;24.96;27.59
14383;BME280;7275;50.328;8.720;2023-04-27T09:42:54;99977.09;;;25.37;27.41
14383;BME280;7275;50.328;8.720;2023-04-27T09:45:22;99977.91;;;25.86;26.88
14383;BME280;7275;50.328;8.720;2023-04-27T09:47:50;99975.03;;;26.34;26.13
14383;BME280;7275;50.328;8.720;2023-04-27T09:50:18;99980.44;;;26.88;26.13
14383;BME280;7275;50.328;8.720;2023-04-27T09:52:47;99966.38;;;27.45;25.13
14383;BME280;7275;50.328;8.720;2023-04-27T09:55:19;99970.84;;;27.98;24.92
14383;BME280;7275;50.328;8.720;2023-04-27T09:57:52;99961.06;;;28.46;24.43
14383;BME280;7275;50.328;8.720;2023-04-27T10:00:39;99958.84;;;29.00;23.77
14383;BME280;7275;50.328;8.720;2023-04-27T10:03:15;99944.75;;;29.61;23.34
14383;BME280;7275;50.328;8.720;2023-04-27T10:06:01;99953.66;;;30.18;22.54
14383;BME280;7275;50.328;8.720;2023-04-27T10:08:36;99950.13;;;30.56;22.06
14383;BME280;7275;50.328;8.720;2023-04-27T10:11:13;99951.66;;;30.89;21.92
14383;BME280;7275;50.328;8.720;2023-04-27T10:13:49;99939.53;;;31.14;21.68
14383;BME280;7275;50.328;8.720;2023-04-27T10:16:20;99945.59;;;31.47;21.22
14383;BME280;7275;50.328;8.720;2023-04-27T10:18:53;99938.63;;;31.96;20.85
14383;BME280;7275;50.328;8.720;2023-04-27T10:21:21;99937.00;;;32.46;20.40
14383;BME280;7275;50.328;8.720;2023-04-27T10:23:50;99941.72;;;33.02;20.25
14383;BME280;7275;50.328;8.720;2023-04-27T10:26:22;99942.75;;;33.43;19.80
14383;BME280;7275;50.328;8.720;2023-04-27T10:28:56;99938.84;;;33.52;19.43
14383;BME280;7275;50.328;8.720;2023-04-27T10:31:26;99945.00;;;33.61;19.47
14383;BME280;7275;50.328;8.720;2023-04-27T10:34:04;99940.00;;;33.99;19.28
14383;BME280;7275;50.328;8.720;2023-04-27T10:36:35;99934.31;;;34.28;19.39
14383;BME280;7275;50.328;8.720;2023-04-27T10:39:13;99932.88;;;34.38;19.08
14383;BME280;7275;50.328;8.720;2023-04-27T10:41:51;99932.19;;;34.30;18.54
14383;BME280;7275;50.328;8.720;2023-04-27T10:44:24;99929.13;;;34.05;18.26
14383;BME280;7275;50.328;8.720;2023-04-27T10:46:52;99929.72;;;33.73;18.55
14383;BME280;7275;50.328;8.720;2023-04-27T10:49:20;99930.72;;;33.44;18.41
14383;BME280;7275;50.328;8.720;2023-04-27T10:51:49;99927.63;;;33.05;18.85
14383;BME280;7275;50.328;8.720;2023-04-27T10:54:17;99935.13;;;32.82;18.64
14383;BME280;7275;50.328;8.720;2023-04-27T10:56:45;99943.63;;;32.51;18.68
14383;BME280;7275;50.328;8.720;2023-04-27T10:59:14;99934.94;;;32.33;18.95
14383;BME280;7275;50.328;8.720;2023-04-27T11:01:41;99933.63;;;32.29;19.02
14383;BME280;7275;50.328;8.720;2023-04-27T11:04:09;99931.56;;;32.31;18.97
14383;BME280;7275;50.328;8.720;2023-04-27T11:06:43;99931.03;;;32.57;18.85
14383;BME280;7275;50.328;8.720;2023-04-27T11:09:12;99926.59;;;33.06;18.63
14383;BME280;7275;50.328;8.720;2023-04-27T11:11:43;99915.66;;;33.34;18.33
14383;BME280;7275;50.328;8.720;2023-04-27T11:14:18;99919.91;;;33.36;17.87
14383;BME280;7275;50.328;8.720;2023-04-27T11:16:46;99915.06;;;33.17;18.19
14383;BME280;7275;50.328;8.720;2023-04-27T11:19:14;99914.44;;;33.15;18.36
14383;BME280;7275;50.328;8.720;2023-04-27T11:21:42;99919.38;;;33.26;18.04
14383;BME280;7275;50.328;8.720;2023-04-27T11:24:10;99912.59;;;33.22;17.95
14383;BME280;7275;50.328;8.720;2023-04-27T11:26:40;99919.38;;;33.26;17.95
14383;BME280;7275;50.328;8.720;2023-04-27T11:29:09;99913.25;;;33.24;17.75
14383;BME280;7275;50.328;8.720;2023-04-27T11:31:42;99909.41;;;33.19;17.20
14383;BME280;7275;50.328;8.720;2023-04-27T11:34:15;99914.13;;;33.03;17.20
14383;BME280;7275;50.328;8.720;2023-04-27T11:36:55;99917.16;;;32.94;17.21
14383;BME280;7275;50.328;8.720;2023-04-27T11:39:40;99907.03;;;32.94;17.39
14383;BME280;7275;50.328;8.720;2023-04-27T11:42:15;99913.75;;;32.92;17.57
14383;BME280;7275;50.328;8.720;2023-04-27T11:44:50;99906.47;;;32.99;17.34
14383;BME280;7275;50.328;8.720;2023-04-27T11:47:19;99905.25;;;33.01;17.38
14383;BME280;7275;50.328;8.720;2023-04-27T11:49:48;99896.94;;;32.95;17.10
14383;BME280;7275;50.328;8.720;2023-04-27T11:52:17;99898.50;;;32.83;17.19
14383;BME280;7275;50.328;8.720;2023-04-27T11:54:48;99900.38;;;32.47;17.54
14383;BME280;7275;50.328;8.720;2023-04-27T11:57:16;99898.22;;;32.27;17.75
14383;BME280;7275;50.328;8.720;2023-04-27T11:59:44;99891.22;;;32.54;17.55
14383;BME280;7275;50.328;8.720;2023-04-27T12:02:12;99887.84;;;32.94;17.45
14383;BME280;7275;50.328;8.720;2023-04-27T12:04:41;99895.63;;;33.33;17.19
14383;BME280;7275;50.328;8.720;2023-04-27T12:07:09;99894.63;;;33.41;16.80
14383;BME280;7275;50.328;8.720;2023-04-27T12:09:37;99881.91;;;33.54;17.12
14383;BME280;7275;50.328;8.720;2023-04-27T12:12:06;99884.72;;;33.67;16.59
14383;BME280;7275;50.328;8.720;2023-04-27T12:14:34;99885.72;;;33.88;16.97
14383;BME280;7275;50.328;8.720;2023-04-27T12:17:01;99888.00;;;34.18;16.72
14383;BME280;7275;50.328;8.720;2023-04-27T12:19:29;99880.88;;;34.30;16.23
14383;BME280;7275;50.328;8.720;2023-04-27T12:21:58;99884.38;;;34.52;16.32
14383;BME280;7275;50.328;8.720;2023-04-27T12:24:26;99877.00;;;34.52;16.32
14383;BME280;7275;50.328;8.720;2023-04-27T12:26:53;99875.22;;;34.45;16.14
14383;BME280;7275;50.328;8.720;2023-04-27T12:29:21;99873.09;;;34.40;16.17
14383;BME280;7275;50.328;8.720;2023-04-27T12:31:48;99871.75;;;34.17;16.32
14383;BME280;7275;50.328;8.720;2023-04-27T12:34:16;99865.81;;;34.13;16.19
14383;BME280;7275;50.328;8.720;2023-04-27T12:36:44;99873.50;;;34.31;16.29
14383;BME280;7275;50.328;8.720;2023-04-27T12:39:15;99861.56;;;34.51;16.27
14383;BME280;7275;50.328;8.720;2023-04-27T12:41:43;99856.09;;;34.78;16.37
14383;BME280;7275;50.328;8.720;2023-04-27T12:44:11;99857.03;;;35.04;16.21
14383;BME280;7275;50.328;8.720;2023-04-27T12:46:39;99853.88;;;35.20;15.56
14383;BME280;7275;50.328;8.720;2023-04-27T12:49:08;99845.84;;;35.25;15.97
14383;BME280;7275;50.328;8.720;2023-04-27T12:51:36;99850.69;;;35.17;15.27
14383;BME280;7275;50.328;8.720;2023-04-27T12:54:05;99848.16;;;35.22;15.33
14383;BME280;7275;50.328;8.720;2023-04-27T12:56:35;99845.81;;;35.32;15.69
14383;BME280;7275;50.328;8.720;2023-04-27T12:59:02;99846.66;;;35.32;15.59
14383;BME280;7275;50.328;8.720;2023-04-27T13:01:31;99840.75;;;35.35;15.79
14383;BME280;7275;50.328;8.720;2023-04-27T13:03:59;99839.06;;;35.61;14.93
14383;BME280;7275;50.328;8.720;2023-04-27T13:06:29;99846.41;;;35.80;14.78
14383;BME280;7275;50.328;8.720;2023-04-27T13:08:57;99843.22;;;35.76;14.99
14383;BME280;7275;50.328;8.720;2023-04-27T13:11:25;99834.38;;;35.61;15.53
14383;BME280;7275;50.328;8.720;2023-04-27T13:13:54;99842.19;;;35.45;15.05
14383;BME280;7275;50.328;8.720;2023-04-27T13:16:23;99832.06;;;35.32;15.25